createdAt,value
2023-05-08T00:01:24.606Z,100.00
2023-05-08T00:03:52.374Z,100.00
2023-05-08T00:06:19.009Z,100.00
2023-05-08T00:08:45.611Z,100.00
2023-05-08T00:11:12.078Z,100.00
2023-05-08T00:13:38.619Z,100.00
2023-05-08T00:16:05.342Z,100.00
2023-05-08T00:18:31.822Z,100.00
2023-05-08T00:20:58.287Z,100.00
2023-05-08T00:23:24.828Z,100.00
2023-05-08T00:25:51.261Z,100.00
2023-05-08T00:28:17.713Z,100.00
2023-05-08T00:30:44.428Z,100.00
2023-05-08T00:33:11.655Z,100.00
2023-05-08T00:35:38.280Z,100.00
2023-05-08T00:38:04.820Z,100.00
2023-05-08T00:40:31.389Z,100.00
2023-05-08T00:42:57.849Z,100.00
2023-05-08T00:45:24.514Z,100.00
2023-05-08T00:47:51.468Z,100.00
2023-05-08T00:50:18.776Z,100.00
2023-05-08T00:52:46.349Z,100.00
2023-05-08T00:55:13.002Z,100.00
2023-05-08T00:57:39.697Z,100.00
2023-05-08T01:00:07.605Z,100.00
2023-05-08T01:02:36.065Z,100.00
2023-05-08T01:05:03.804Z,100.00
2023-05-08T01:07:30.274Z,100.00
2023-05-08T01:09:56.792Z,100.00
2023-05-08T01:13:08.238Z,100.00
2023-05-08T01:15:53.348Z,100.00
2023-05-08T01:18:32.398Z,100.00
2023-05-08T01:21:07.818Z,100.00
2023-05-08T01:23:52.713Z,100.00
2023-05-08T01:26:47.694Z,100.00
2023-05-08T01:29:30.705Z,100.00
2023-05-08T01:32:00.147Z,100.00
2023-05-08T01:34:35.511Z,100.00
2023-05-08T01:37:05.380Z,100.00
2023-05-08T01:39:43.958Z,100.00
2023-05-08T01:42:21.657Z,100.00
2023-05-08T01:44:54.662Z,100.00
2023-05-08T01:47:25.791Z,100.00
2023-05-08T01:50:05.559Z,100.00
2023-05-08T01:52:36.956Z,100.00
2023-05-08T01:55:11.330Z,100.00
2023-05-08T01:57:43.889Z,100.00
2023-05-08T02:00:11.547Z,100.00
2023-05-08T02:02:38.387Z,100.00
2023-05-08T02:05:07.501Z,100.00
2023-05-08T02:07:38.007Z,100.00
2023-05-08T02:10:06.358Z,100.00
2023-05-08T02:12:34.184Z,100.00
2023-05-08T02:15:01.843Z,100.00
2023-05-08T02:17:30.375Z,100.00
2023-05-08T02:19:59.025Z,100.00
2023-05-08T02:22:26.468Z,100.00
2023-05-08T02:24:55.623Z,100.00
2023-05-08T02:27:24.388Z,100.00
2023-05-08T02:29:52.435Z,100.00
2023-05-08T02:32:20.859Z,100.00
2023-05-08T02:35:01.977Z,100.00
2023-05-08T02:37:31.308Z,100.00
2023-05-08T02:39:58.940Z,100.00
2023-05-08T02:42:25.680Z,100.00
2023-05-08T02:44:52.261Z,100.00
2023-05-08T02:47:28.651Z,100.00
2023-05-08T02:50:09.668Z,100.00
2023-05-08T02:52:45.604Z,100.00
2023-05-08T02:55:16.793Z,100.00
2023-05-08T02:57:48.888Z,100.00
2023-05-08T03:00:19.014Z,100.00
2023-05-08T03:02:50.964Z,100.00
2023-05-08T03:05:21.016Z,100.00
2023-05-08T03:07:50.925Z,100.00
2023-05-08T03:10:21.758Z,100.00
2023-05-08T03:12:52.022Z,100.00
2023-05-08T03:15:25.552Z,100.00
2023-05-08T03:17:56.093Z,100.00
2023-05-08T03:20:26.330Z,100.00
2023-05-08T03:22:55.936Z,100.00
2023-05-08T03:25:23.521Z,100.00
2023-05-08T03:27:52.048Z,100.00
2023-05-08T03:30:20.564Z,100.00
2023-05-08T03:32:48.280Z,100.00
2023-05-08T03:35:16.032Z,100.00
2023-05-08T03:37:43.364Z,100.00
2023-05-08T03:40:10.444Z,100.00
2023-05-08T03:42:38.375Z,100.00
2023-05-08T03:45:07.068Z,100.00
2023-05-08T03:47:35.915Z,100.00
2023-05-08T03:50:03.193Z,100.00
2023-05-08T03:52:30.288Z,100.00
2023-05-08T03:54:56.714Z,100.00
2023-05-08T03:57:27.558Z,100.00
2023-05-08T04:00:06.418Z,100.00
2023-05-08T04:02:46.106Z,100.00
2023-05-08T04:05:24.425Z,100.00
2023-05-08T04:08:04.944Z,100.00
2023-05-08T04:10:37.608Z,100.00
2023-05-08T04:13:10.965Z,100.00
2023-05-08T04:16:00.832Z,100.00
2023-05-08T04:18:30.525Z,100.00
2023-05-08T04:20:58.760Z,100.00
2023-05-08T04:23:27.169Z,100.00
2023-05-08T04:25:55.161Z,100.00
2023-05-08T04:28:22.572Z,100.00
2023-05-08T04:30:49.630Z,100.00
2023-05-08T04:33:18.558Z,100.00
2023-05-08T04:35:46.254Z,100.00
2023-05-08T04:38:12.783Z,100.00
2023-05-08T04:40:39.303Z,100.00
2023-05-08T04:43:05.898Z,100.00
2023-05-08T04:45:32.371Z,100.00
2023-05-08T04:47:58.901Z,100.00
2023-05-08T04:50:25.637Z,100.00
2023-05-08T04:52:52.169Z,100.00
2023-05-08T04:55:18.633Z,100.00
2023-05-08T04:57:45.273Z,100.00
2023-05-08T05:00:12.253Z,100.00
2023-05-08T05:02:38.774Z,100.00
2023-05-08T05:05:05.816Z,100.00
2023-05-08T05:07:32.334Z,100.00
2023-05-08T05:10:00.394Z,100.00
2023-05-08T05:12:26.881Z,100.00
2023-05-08T05:14:53.382Z,100.00
2023-05-08T05:17:19.827Z,100.00
2023-05-08T05:19:47.068Z,100.00
2023-05-08T05:22:13.575Z,100.00
2023-05-08T05:24:40.876Z,100.00
2023-05-08T05:27:07.316Z,100.00
2023-05-08T05:29:33.807Z,100.00
2023-05-08T05:32:00.376Z,100.00
2023-05-08T05:34:26.837Z,100.00
2023-05-08T05:36:53.291Z,100.00
2023-05-08T05:39:19.714Z,100.00
2023-05-08T05:41:47.272Z,100.00
2023-05-08T05:44:13.818Z,100.00
2023-05-08T05:46:42.750Z,100.00
2023-05-08T05:49:11.827Z,100.00
2023-05-08T05:51:38.303Z,100.00
2023-05-08T05:54:04.935Z,100.00
2023-05-08T05:56:31.452Z,100.00
2023-05-08T05:58:57.924Z,100.00
2023-05-08T06:01:24.753Z,100.00
2023-05-08T06:03:51.328Z,100.00
2023-05-08T06:06:17.848Z,100.00
2023-05-08T06:08:44.353Z,100.00
2023-05-08T06:11:11.843Z,100.00
2023-05-08T06:13:41.593Z,100.00
2023-05-08T06:16:08.368Z,100.00
2023-05-08T06:18:34.908Z,100.00
2023-05-08T06:21:01.458Z,100.00
2023-05-08T06:23:28.119Z,100.00
2023-05-08T06:25:54.689Z,100.00
2023-05-08T06:28:22.586Z,100.00
2023-05-08T06:30:49.426Z,100.00
2023-05-08T06:33:16.240Z,100.00
2023-05-08T06:35:46.461Z,100.00
2023-05-08T06:38:12.993Z,100.00
2023-05-08T06:40:43.983Z,100.00
2023-05-08T06:43:11.247Z,100.00
2023-05-08T06:45:38.059Z,100.00
2023-05-08T06:48:04.891Z,100.00
2023-05-08T06:50:31.419Z,100.00
2023-05-08T06:52:57.997Z,100.00
2023-05-08T06:55:24.461Z,100.00
2023-05-08T06:57:50.942Z,100.00
2023-05-08T07:00:17.596Z,100.00
2023-05-08T07:02:44.100Z,100.00
2023-05-08T07:05:10.873Z,100.00
2023-05-08T07:07:37.581Z,100.00
2023-05-08T07:10:05.359Z,100.00
2023-05-08T07:12:33.088Z,100.00
2023-05-08T07:14:59.693Z,100.00
2023-05-08T07:17:28.484Z,100.00
2023-05-08T07:19:55.024Z,100.00
2023-05-08T07:22:21.612Z,100.00
2023-05-08T07:24:48.214Z,100.00
2023-05-08T07:27:14.772Z,100.00
2023-05-08T07:29:42.577Z,100.00
2023-05-08T07:32:09.125Z,100.00
2023-05-08T07:34:35.953Z,100.00
2023-05-08T07:37:03.023Z,100.00
2023-05-08T07:39:29.490Z,100.00
2023-05-08T07:41:56.015Z,100.00
2023-05-08T07:44:22.535Z,100.00
2023-05-08T07:46:49.131Z,100.00
2023-05-08T07:49:15.839Z,100.00
2023-05-08T07:51:42.334Z,100.00
2023-05-08T07:54:08.784Z,100.00
2023-05-08T07:56:35.255Z,100.00
2023-05-08T07:59:01.742Z,100.00
2023-05-08T08:01:28.193Z,100.00
2023-05-08T08:03:54.807Z,100.00
2023-05-08T08:06:21.332Z,100.00
2023-05-08T08:08:47.812Z,100.00
2023-05-08T08:11:14.275Z,100.00
2023-05-08T08:13:40.792Z,100.00
2023-05-08T08:16:07.263Z,100.00
2023-05-08T08:18:35.746Z,100.00
2023-05-08T08:21:06.587Z,100.00
2023-05-08T08:23:33.617Z,100.00
2023-05-08T08:26:00.140Z,100.00
2023-05-08T08:28:26.696Z,100.00
2023-05-08T08:30:53.187Z,100.00
2023-05-08T08:33:19.755Z,100.00
2023-05-08T08:35:46.343Z,100.00
2023-05-08T08:38:13.274Z,100.00
2023-05-08T08:40:43.477Z,100.00
2023-05-08T08:43:10.191Z,100.00
2023-05-08T08:45:37.532Z,100.00
2023-05-08T08:48:04.780Z,100.00
2023-05-08T08:50:32.963Z,100.00
2023-05-08T08:53:02.123Z,100.00
2023-05-08T08:55:30.642Z,100.00
2023-05-08T08:58:23.094Z,100.00
2023-05-08T09:00:49.993Z,100.00
2023-05-08T09:03:16.763Z,100.00
2023-05-08T09:05:45.312Z,100.00
2023-05-08T09:08:12.895Z,100.00
2023-05-08T09:10:39.470Z,100.00
2023-05-08T09:13:06.255Z,100.00
2023-05-08T09:15:33.555Z,100.00
2023-05-08T09:18:02.257Z,98.64
2023-05-08T09:20:29.873Z,97.87
2023-05-08T09:22:57.594Z,97.21
2023-05-08T09:25:24.094Z,95.56
2023-05-08T09:27:51.253Z,96.29
2023-05-08T09:30:17.711Z,96.41
2023-05-08T09:32:45.526Z,96.97
2023-05-08T09:35:12.813Z,98.45
2023-05-08T09:37:42.207Z,97.63
2023-05-08T09:40:17.669Z,97.21
2023-05-08T09:42:45.208Z,97.13
2023-05-08T09:45:12.570Z,95.33
2023-05-08T09:47:47.759Z,95.70
2023-05-08T09:50:14.427Z,95.52
2023-05-08T09:52:47.045Z,94.42
2023-05-08T09:55:13.463Z,94.74
2023-05-08T09:57:51.893Z,93.77
2023-05-08T10:00:18.654Z,92.31
2023-05-08T10:03:00.126Z,92.32
2023-05-08T10:05:34.669Z,94.47
2023-05-08T10:08:22.336Z,96.74
2023-05-08T10:10:49.245Z,96.71
2023-05-08T10:13:16.086Z,95.03
2023-05-08T10:15:44.009Z,94.61
2023-05-08T10:18:12.208Z,95.08
2023-05-08T10:20:40.911Z,94.51
2023-05-08T10:23:11.549Z,95.21
2023-05-08T10:25:44.629Z,95.63
2023-05-08T10:28:36.818Z,93.20
2023-05-08T10:31:05.504Z,92.39
2023-05-08T10:33:34.848Z,92.22
2023-05-08T10:36:01.756Z,91.69
2023-05-08T10:38:28.488Z,91.58
2023-05-08T10:40:58.174Z,92.73
2023-05-08T10:43:25.813Z,91.59
2023-05-08T10:45:54.048Z,91.59
2023-05-08T10:48:34.026Z,91.83
2023-05-08T10:51:16.618Z,91.88
2023-05-08T10:53:46.315Z,92.20
2023-05-08T10:56:12.913Z,90.00
2023-05-08T10:58:40.289Z,91.64
2023-05-08T11:01:09.690Z,90.04
2023-05-08T11:03:44.334Z,91.33
2023-05-08T11:06:11.646Z,90.12
2023-05-08T11:09:04.731Z,89.77
2023-05-08T11:11:33.757Z,88.59
2023-05-08T11:14:12.190Z,89.76
2023-05-08T11:16:53.837Z,89.53
2023-05-08T11:19:25.002Z,91.08
2023-05-08T11:22:19.651Z,89.14
2023-05-08T11:24:52.263Z,88.17
2023-05-08T11:27:30.629Z,88.25
2023-05-08T11:30:26.423Z,88.04
2023-05-08T11:33:19.717Z,87.56
2023-05-08T11:35:47.672Z,87.66
2023-05-08T11:38:16.140Z,88.38
2023-05-08T11:40:55.855Z,87.67
2023-05-08T11:43:35.958Z,88.39
2023-05-08T11:46:14.553Z,87.83
2023-05-08T11:48:41.067Z,86.88
2023-05-08T11:51:07.655Z,85.11
2023-05-08T11:53:36.401Z,85.88
2023-05-08T11:56:03.885Z,87.33
2023-05-08T11:58:31.101Z,86.36
2023-05-08T12:00:57.792Z,86.54
2023-05-08T12:03:25.650Z,86.27
2023-05-08T12:05:56.241Z,88.48
2023-05-08T12:08:23.036Z,87.85
2023-05-08T12:10:54.526Z,87.82
2023-05-08T12:13:25.656Z,85.53
2023-05-08T12:15:57.257Z,86.61
2023-05-08T12:18:25.079Z,86.92
2023-05-08T12:21:00.112Z,85.43
2023-05-08T12:23:29.308Z,85.12
2023-05-08T12:25:59.256Z,83.63
2023-05-08T12:28:25.954Z,84.61
2023-05-08T12:30:53.011Z,80.21
2023-05-08T12:33:23.324Z,79.00
2023-05-08T12:35:50.072Z,79.46
2023-05-08T12:38:16.627Z,77.06
2023-05-08T12:40:45.293Z,79.11
2023-05-08T12:43:12.055Z,75.46
2023-05-08T12:45:40.344Z,74.27
2023-05-08T12:48:15.518Z,79.26
2023-05-08T12:50:44.595Z,73.43
2023-05-08T12:53:13.275Z,72.76
2023-05-08T12:55:41.302Z,72.21
2023-05-08T12:58:15.272Z,73.45
2023-05-08T13:00:46.275Z,74.34
2023-05-08T13:03:14.704Z,74.25
2023-05-08T13:05:48.185Z,75.37
2023-05-08T13:08:14.703Z,74.86
2023-05-08T13:10:47.305Z,76.98
2023-05-08T13:13:15.603Z,77.87
2023-05-08T13:15:42.825Z,77.57
2023-05-08T13:18:09.702Z,77.88
2023-05-08T13:20:37.340Z,78.88
2023-05-08T13:23:04.138Z,78.17
2023-05-08T13:25:31.006Z,78.55
2023-05-08T13:27:58.485Z,78.89
2023-05-08T13:30:24.963Z,77.42
2023-05-08T13:32:52.728Z,76.85
2023-05-08T13:35:19.987Z,77.39
2023-05-08T13:37:47.120Z,78.16
2023-05-08T13:40:16.260Z,78.83
2023-05-08T13:42:43.646Z,75.86
2023-05-08T13:45:10.893Z,77.22
2023-05-08T13:47:37.656Z,75.16
2023-05-08T13:50:04.346Z,76.01
2023-05-08T13:52:30.935Z,77.64
2023-05-08T13:54:58.183Z,79.12
2023-05-08T13:57:24.863Z,78.08
2023-05-08T13:59:51.367Z,77.34
2023-05-08T14:04:44.338Z,80.08
2023-05-08T14:07:10.933Z,81.21
2023-05-08T14:09:37.872Z,79.43
2023-05-08T14:12:04.476Z,78.09
2023-05-08T14:14:32.334Z,77.76
2023-05-08T14:16:59.536Z,78.12
2023-05-08T14:19:26.093Z,77.16
2023-05-08T14:21:52.827Z,78.10
2023-05-08T14:24:19.381Z,74.20
2023-05-08T14:26:45.931Z,73.83
2023-05-08T14:29:12.571Z,73.59
2023-05-08T14:31:39.176Z,72.25
2023-05-08T14:34:05.660Z,72.25
2023-05-08T14:36:32.204Z,73.83
2023-05-08T14:38:58.703Z,73.72
2023-05-08T14:41:29.118Z,73.91
2023-05-08T14:43:56.198Z,73.32
2023-05-08T14:46:23.800Z,74.64
2023-05-08T14:48:50.843Z,74.59
2023-05-08T14:51:19.288Z,74.08
2023-05-08T14:53:46.361Z,76.35
2023-05-08T14:56:16.436Z,77.59
2023-05-08T14:58:42.926Z,77.87
2023-05-08T15:01:09.381Z,79.34
2023-05-08T15:03:35.943Z,78.20
2023-05-08T15:06:02.548Z,77.64
2023-05-08T15:08:29.254Z,78.40
2023-05-08T15:10:56.144Z,79.27
2023-05-08T15:13:22.696Z,78.50
2023-05-08T15:15:49.211Z,78.06
2023-05-08T15:18:15.682Z,77.24
2023-05-08T15:20:42.190Z,77.52
2023-05-08T15:23:08.612Z,78.30
2023-05-08T15:25:35.139Z,79.53
2023-05-08T15:28:01.647Z,78.60
2023-05-08T15:30:28.123Z,77.91
2023-05-08T15:32:54.761Z,77.67
2023-05-08T15:35:22.021Z,77.78
2023-05-08T15:37:48.526Z,77.97
2023-05-08T15:40:15.183Z,77.02
2023-05-08T15:42:41.656Z,78.94
2023-05-08T15:45:08.805Z,78.70
2023-05-08T15:47:35.363Z,79.18
2023-05-08T15:50:01.901Z,79.43
2023-05-08T15:52:28.361Z,78.73
2023-05-08T15:54:54.919Z,79.63
2023-05-08T15:57:21.394Z,82.10
2023-05-08T15:59:47.889Z,81.39
2023-05-08T16:02:14.505Z,80.09
2023-05-08T16:04:41.095Z,80.52
2023-05-08T16:07:07.527Z,81.29
2023-05-08T16:09:33.985Z,80.83
2023-05-08T16:12:00.453Z,80.58
2023-05-08T16:14:27.045Z,80.57
2023-05-08T16:16:53.514Z,81.04
2023-05-08T16:19:20.041Z,82.11
2023-05-08T16:21:47.753Z,82.54
2023-05-08T16:24:14.482Z,81.78
2023-05-08T16:26:41.066Z,82.15
2023-05-08T16:29:07.576Z,81.38
2023-05-08T16:31:34.137Z,82.91
2023-05-08T16:34:00.740Z,82.87
2023-05-08T16:36:27.662Z,83.31
2023-05-08T16:38:54.196Z,82.91
2023-05-08T16:41:21.252Z,83.19
2023-05-08T16:43:47.756Z,83.34
2023-05-08T16:46:14.382Z,82.75
2023-05-08T16:48:42.268Z,83.50
2023-05-08T16:51:08.818Z,83.80
2023-05-08T16:53:35.401Z,84.50
2023-05-08T16:56:04.555Z,83.39
2023-05-08T16:58:31.024Z,85.22
2023-05-08T17:00:57.500Z,84.57
2023-05-08T17:03:24.159Z,83.42
2023-05-08T17:05:50.781Z,83.24
2023-05-08T17:08:17.679Z,82.86
2023-05-08T17:10:44.173Z,82.28
2023-05-08T17:13:10.691Z,82.57
2023-05-08T17:15:37.241Z,82.48
2023-05-08T17:18:03.793Z,83.06
2023-05-08T17:20:30.384Z,84.26
2023-05-08T17:22:56.941Z,83.42
2023-05-08T17:25:23.688Z,83.56
2023-05-08T17:27:50.243Z,83.24
2023-05-08T17:30:17.030Z,84.71
2023-05-08T17:32:43.779Z,84.39
2023-05-08T17:35:10.382Z,84.97
2023-05-08T17:37:37.261Z,85.57
2023-05-08T17:40:03.999Z,85.37
2023-05-08T17:42:30.556Z,85.61
2023-05-08T17:44:57.081Z,86.06
2023-05-08T17:47:23.747Z,85.19
2023-05-08T17:49:50.564Z,85.02
2023-05-08T17:52:17.170Z,84.86
2023-05-08T17:54:43.622Z,85.53
2023-05-08T17:57:10.178Z,85.45
2023-05-08T17:59:36.612Z,85.94
2023-05-08T18:02:03.225Z,86.42
2023-05-08T18:04:29.750Z,87.37
2023-05-08T18:06:56.244Z,86.99
2023-05-08T18:09:22.698Z,87.56
2023-05-08T18:11:49.152Z,88.33
2023-05-08T18:14:15.629Z,88.77
2023-05-08T18:16:42.143Z,89.53
2023-05-08T18:19:08.672Z,89.72
2023-05-08T18:21:35.107Z,89.72
2023-05-08T18:24:01.581Z,91.04
2023-05-08T18:26:28.155Z,90.74
2023-05-08T18:28:54.626Z,90.21
2023-05-08T18:31:21.222Z,90.17
2023-05-08T18:33:47.815Z,90.64
2023-05-08T18:36:14.432Z,90.03
2023-05-08T18:38:41.755Z,90.77
2023-05-08T18:41:08.363Z,90.63
2023-05-08T18:43:35.053Z,90.91
2023-05-08T18:46:12.331Z,90.34
2023-05-08T18:48:39.833Z,90.71
2023-05-08T18:51:06.676Z,90.89
2023-05-08T18:53:33.567Z,91.51
2023-05-08T18:56:03.664Z,91.16
2023-05-08T18:58:30.828Z,91.99
2023-05-08T19:00:58.410Z,91.59
2023-05-08T19:03:25.580Z,91.22
2023-05-08T19:05:54.932Z,91.39
2023-05-08T19:08:21.447Z,91.31
2023-05-08T19:10:47.902Z,92.19
2023-05-08T19:13:14.620Z,91.54
2023-05-08T19:15:41.219Z,91.85
2023-05-08T19:18:07.840Z,91.71
2023-05-08T19:20:34.402Z,92.26
2023-05-08T19:23:00.889Z,92.48
2023-05-08T19:25:27.347Z,91.64
2023-05-08T19:27:53.888Z,92.11
2023-05-08T19:30:20.575Z,91.96
2023-05-08T19:32:47.015Z,92.24
2023-05-08T19:35:13.636Z,93.38
2023-05-08T19:37:40.328Z,94.11
2023-05-08T19:40:07.352Z,94.68
2023-05-08T19:42:33.881Z,95.99
2023-05-08T19:45:00.400Z,95.55
2023-05-08T19:47:27.004Z,95.47
2023-05-08T19:49:54.270Z,95.58
2023-05-08T19:52:20.814Z,95.83
2023-05-08T19:54:47.282Z,95.23
2023-05-08T19:57:13.797Z,94.56
2023-05-08T19:59:40.279Z,94.81
2023-05-08T20:02:06.998Z,94.99
2023-05-08T20:04:40.045Z,94.84
2023-05-08T20:07:18.586Z,95.68
2023-05-08T20:09:45.048Z,96.74
2023-05-08T20:12:11.505Z,97.35
2023-05-08T20:14:37.990Z,98.12
2023-05-08T20:17:04.514Z,98.58
2023-05-08T20:19:31.079Z,98.55
2023-05-08T20:21:57.630Z,98.97
2023-05-08T20:24:24.113Z,98.38
2023-05-08T20:26:54.308Z,98.14
2023-05-08T20:29:21.115Z,97.62
2023-05-08T20:31:47.638Z,97.67
2023-05-08T20:34:14.141Z,97.59
2023-05-08T20:36:40.729Z,97.35
2023-05-08T20:39:07.284Z,97.22
2023-05-08T20:41:33.756Z,97.31
2023-05-08T20:44:00.220Z,97.21
2023-05-08T20:46:26.969Z,97.08
2023-05-08T20:48:53.604Z,97.06
2023-05-08T20:51:20.196Z,97.09
2023-05-08T20:53:46.867Z,97.13
2023-05-08T20:56:18.792Z,97.09
2023-05-08T20:58:46.146Z,96.94
2023-05-08T21:01:12.633Z,96.45
2023-05-08T21:03:39.169Z,96.94
2023-05-08T21:06:05.878Z,97.62
2023-05-08T21:08:32.359Z,98.52
2023-05-08T21:11:00.538Z,99.15
2023-05-08T21:13:27.146Z,99.48
2023-05-08T21:15:53.657Z,99.48
2023-05-08T21:18:20.100Z,99.47
2023-05-08T21:20:50.191Z,99.04
2023-05-08T21:23:18.129Z,99.74
2023-05-08T21:25:48.369Z,100.00
2023-05-08T21:28:16.077Z,100.00
2023-05-08T21:30:46.261Z,100.00
2023-05-08T21:33:13.888Z,100.00
2023-05-08T21:35:41.691Z,100.00
2023-05-08T21:38:09.041Z,100.00
2023-05-08T21:40:35.532Z,100.00
2023-05-08T21:43:02.005Z,100.00
2023-05-08T21:45:31.769Z,100.00
2023-05-08T21:47:58.913Z,100.00
2023-05-08T21:50:26.033Z,100.00
2023-05-08T21:52:53.238Z,100.00
2023-05-08T21:55:19.987Z,100.00
2023-05-08T21:57:46.414Z,100.00
2023-05-08T22:00:13.493Z,100.00
2023-05-08T22:02:40.090Z,100.00
2023-05-08T22:05:07.580Z,100.00
2023-05-08T22:07:34.165Z,100.00
2023-05-08T22:10:00.674Z,100.00
2023-05-08T22:12:27.152Z,100.00
2023-05-08T22:14:53.648Z,100.00
2023-05-08T22:17:20.107Z,100.00
2023-05-08T22:19:46.583Z,100.00
2023-05-08T22:22:13.185Z,100.00
2023-05-08T22:24:39.659Z,100.00
2023-05-08T22:27:06.368Z,100.00
2023-05-08T22:29:32.847Z,100.00
2023-05-08T22:31:59.323Z,100.00
2023-05-08T22:34:25.850Z,100.00
2023-05-08T22:36:52.383Z,100.00
2023-05-08T22:39:18.846Z,100.00
2023-05-08T22:41:45.485Z,100.00
2023-05-08T22:44:12.387Z,100.00
2023-05-08T22:46:39.111Z,100.00
2023-05-08T22:49:06.030Z,100.00
2023-05-08T22:51:32.652Z,100.00
2023-05-08T22:53:59.127Z,100.00
2023-05-08T22:56:25.793Z,100.00
2023-05-08T22:58:54.680Z,100.00
2023-05-08T23:01:23.916Z,100.00
2023-05-08T23:03:52.187Z,100.00
2023-05-08T23:06:18.643Z,100.00
2023-05-08T23:08:45.097Z,100.00
2023-05-08T23:11:11.578Z,100.00
2023-05-08T23:13:38.030Z,100.00
2023-05-08T23:16:04.915Z,100.00
2023-05-08T23:18:32.581Z,100.00
2023-05-08T23:21:07.582Z,100.00
2023-05-08T23:23:35.062Z,100.00
2023-05-08T23:26:04.775Z,100.00
2023-05-08T23:28:33.534Z,100.00
2023-05-08T23:31:00.510Z,100.00
2023-05-08T23:33:27.134Z,100.00
2023-05-08T23:35:58.264Z,100.00
2023-05-08T23:38:25.223Z,100.00
2023-05-08T23:40:51.779Z,100.00
2023-05-08T23:43:18.701Z,100.00
2023-05-08T23:45:45.372Z,100.00
2023-05-08T23:48:11.913Z,100.00
2023-05-08T23:50:38.425Z,100.00
2023-05-08T23:53:04.958Z,100.00
2023-05-08T23:55:31.625Z,100.00
2023-05-08T23:57:58.152Z,100.00
